Java, SD (57452)

7:51 PM CDT on March 26, 2017 (GMT -0500)
Hoven | | Change Station

Elev 1877 ft 45.24 °N, 99.78 °W | Updated 2 seconds ago

Overcast
Overcast
48.9 °F
Feels Like 49 °F
N
0.0
Wind Variable Wind from NNW
Gusts 4.0 mph

Today
High -- | Low -- °F
--% Chance of Precip.
Yesterday
High -- | Low -- °F
Precip. -- in
Pressure 29.92 in
Visibility 10.0 miles
Clouds Mostly Cloudy 7500 ft
Overcast 9500 ft
Windchill 49 °F
Dew Point 32 °F
Humidity 52%
Rainfall 0.00 in
Snow Depth Not available.
7:30 AM 8:00 PM
Waning Crescent, 2% visible
METAR KMBG 262352Z AUTO 14005KT 10SM BKN075 OVC095 12/02 A2989 RMK AO2 SLP130 T01170017 10133 20067 55003 $
Pressure 29.92 in
Visibility 10.0 miles
Clouds Mostly Cloudy 7500 ft
Overcast 9500 ft
Windchill 49 °F
Dew Point 32 °F
Humidity 52%
Rainfall 0.00 in
Snow Depth Not available.
7:30 AM 8:00 PM
Waning Crescent, 2% visible
METAR KMBG 262352Z AUTO 14005KT 10SM BKN075 OVC095 12/02 A2989 RMK AO2 SLP130 T01170017 10133 20067 55003 $

Get Severe Weather Alerts

Thanks for signing up!

Be on the lookout for a verification email in your inbox.

You'll start receiving the daily forecast at 8 AM.

×

10-Day Weather Forecast

Almanac

Astronomy

Mar. 26, 2017 Rise Set
Actual Time
Civil Twilight
Nautical Twilight
Astronomical Twilight
Moon
Length of Visible Light
Length of Day
Tomorrow will be .
, % of the Moon is Illuminated

Today's Extremes

State Highs State Lows

Community

WunderPhotos

Upload Photos

1,962,540 photos uploaded!

WunderBlog® & News

Nearby

Air Quality

  Air Quality AQ Index Pollutant
Not available.

Snow Depth

Station Depth Elevation

Earthquake Activity

City Distance Mag. Time & Date
Minimum magnitude displayed is 2.5.

Earthquake Activity

City Distance Mag. Time & Date
Minimum magnitude displayed is 2.5.

Coastal Water Temperatures

Place Temperature

Stations

Nearby Weather Stations

Station Location Temp. Windchill Dew Point Humidity Wind Precip. Elev Updated Type
                   

Watches & Warnings

There are currently no watches in effect.